createdAt,value
2019-03-03T00:00:02.844Z,1004.01
2019-03-03T00:01:02.832Z,1003.97
2019-03-03T00:02:02.824Z,1003.96
2019-03-03T00:03:02.825Z,1003.94
2019-03-03T00:04:02.806Z,1004.00
2019-03-03T00:05:02.807Z,1003.95
2019-03-03T00:06:02.786Z,1003.95
2019-03-03T00:07:02.773Z,1003.95
2019-03-03T00:08:02.776Z,1003.94
2019-03-03T00:09:02.758Z,1003.88
2019-03-03T00:10:02.747Z,1003.90
2019-03-03T00:11:02.742Z,1003.87
2019-03-03T00:12:02.720Z,1003.86
2019-03-03T00:13:02.713Z,1003.85
2019-03-03T00:14:02.698Z,1003.81
2019-03-03T00:15:02.696Z,1003.80
2019-03-03T00:16:02.686Z,1003.80
2019-03-03T00:17:02.663Z,1003.79
2019-03-03T00:18:02.669Z,1003.74
2019-03-03T00:19:02.650Z,1003.73
2019-03-03T00:20:02.639Z,1003.71
2019-03-03T00:21:02.641Z,1003.65
2019-03-03T00:22:02.625Z,1003.62
2019-03-03T00:23:02.602Z,1003.59
2019-03-03T00:24:02.595Z,1003.53
2019-03-03T00:25:02.583Z,1003.58
2019-03-03T00:26:02.575Z,1003.57
2019-03-03T00:27:02.564Z,1003.63
2019-03-03T00:28:02.561Z,1003.61
2019-03-03T00:29:02.543Z,1003.60
2019-03-03T00:30:02.527Z,1003.58
2019-03-03T00:31:02.537Z,1003.53
2019-03-03T00:32:02.512Z,1003.51
2019-03-03T00:33:02.505Z,1003.51
2019-03-03T00:34:02.487Z,1003.54
2019-03-03T00:35:02.472Z,1003.54
2019-03-03T00:36:02.465Z,1003.53
2019-03-03T00:37:02.449Z,1003.51
2019-03-03T00:38:02.445Z,1003.53
2019-03-03T00:39:02.451Z,1003.53
2019-03-03T00:40:02.425Z,1003.53
2019-03-03T00:41:02.419Z,1003.51
2019-03-03T00:42:02.399Z,1003.47
2019-03-03T00:43:02.407Z,1003.39
2019-03-03T00:44:02.384Z,1003.36
2019-03-03T00:45:02.393Z,1003.36
2019-03-03T00:46:02.365Z,1003.38
2019-03-03T00:47:02.350Z,1003.44
2019-03-03T00:48:02.334Z,1003.35
2019-03-03T00:49:02.325Z,1003.32
2019-03-03T00:50:02.324Z,1003.29
2019-03-03T00:51:02.335Z,1003.27
2019-03-03T00:52:02.296Z,1003.24
2019-03-03T00:53:02.289Z,1003.31
2019-03-03T00:54:02.281Z,1003.31
2019-03-03T00:55:02.271Z,1003.27
2019-03-03T00:56:02.260Z,1003.35
2019-03-03T00:57:02.247Z,1003.38
2019-03-03T00:58:02.231Z,1003.34
2019-03-03T00:59:02.222Z,1003.37
2019-03-03T01:00:02.218Z,1003.37
2019-03-03T01:01:02.200Z,1003.36
2019-03-03T01:02:02.196Z,1003.40
2019-03-03T01:03:02.179Z,1003.37
2019-03-03T01:04:02.169Z,1003.38
2019-03-03T01:05:02.156Z,1003.38
2019-03-03T01:06:02.156Z,1003.37
2019-03-03T01:07:02.140Z,1003.34
2019-03-03T01:08:02.142Z,1003.33
2019-03-03T01:09:02.120Z,1003.30
2019-03-03T01:10:02.099Z,1003.32
2019-03-03T01:11:02.096Z,1003.27
2019-03-03T01:12:02.084Z,1003.27
2019-03-03T01:13:02.072Z,1003.21
2019-03-03T01:14:02.078Z,1003.28
2019-03-03T01:15:02.061Z,1003.28
2019-03-03T01:16:02.049Z,1003.25
2019-03-03T01:17:02.037Z,1003.24
2019-03-03T01:18:02.018Z,1003.30
2019-03-03T01:19:02.016Z,1003.25
2019-03-03T01:20:02.019Z,1003.29
2019-03-03T01:21:02.002Z,1003.25
2019-03-03T01:22:01.982Z,1003.28
2019-03-03T01:23:03.211Z,1003.22
2019-03-03T01:24:01.957Z,1003.22
2019-03-03T01:25:01.956Z,1003.21
2019-03-03T01:26:01.941Z,1003.25
2019-03-03T01:27:01.928Z,1003.22
2019-03-03T01:28:01.925Z,1003.19
2019-03-03T01:29:01.902Z,1003.18
2019-03-03T01:30:01.895Z,1003.18
2019-03-03T01:31:01.887Z,1003.20
2019-03-03T01:32:01.870Z,1003.20
2019-03-03T01:33:01.860Z,1003.15
2019-03-03T01:34:01.852Z,1003.16
2019-03-03T01:35:01.835Z,1003.13
2019-03-03T01:36:01.824Z,1003.12
2019-03-03T01:37:01.829Z,1003.15
2019-03-03T01:38:01.807Z,1003.13
2019-03-03T01:39:01.800Z,1003.14
2019-03-03T01:40:01.794Z,1003.09
2019-03-03T01:41:01.777Z,1003.10
2019-03-03T01:42:01.783Z,1003.12
2019-03-03T01:43:01.767Z,1003.07
2019-03-03T01:44:01.746Z,1003.03
2019-03-03T01:45:01.734Z,1003.01
2019-03-03T01:46:01.726Z,1003.02
2019-03-03T01:47:01.717Z,1003.03
2019-03-03T01:48:01.705Z,1003.03
2019-03-03T01:49:01.693Z,1003.04
2019-03-03T01:50:01.680Z,1002.99
2019-03-03T01:51:01.671Z,1002.97
2019-03-03T01:52:01.658Z,1002.93
2019-03-03T01:53:01.656Z,1002.95
2019-03-03T01:54:01.645Z,1002.91
2019-03-03T01:55:01.637Z,1002.91
2019-03-03T01:56:01.615Z,1002.89
2019-03-03T01:57:01.607Z,1002.89
2019-03-03T01:58:01.594Z,1002.90
2019-03-03T01:59:01.593Z,1002.83
2019-03-03T02:00:01.591Z,1002.80
2019-03-03T02:01:01.566Z,1002.75
2019-03-03T02:02:01.555Z,1002.78
2019-03-03T02:03:01.569Z,1002.71
2019-03-03T02:04:01.528Z,1002.75
2019-03-03T02:05:01.524Z,1002.71
2019-03-03T02:06:01.512Z,1002.74
2019-03-03T02:07:01.496Z,1002.74
2019-03-03T02:08:01.484Z,1002.69
2019-03-03T02:09:01.475Z,1002.74
2019-03-03T02:10:01.471Z,1002.73
2019-03-03T02:11:01.453Z,1002.75
2019-03-03T02:12:01.449Z,1002.69
2019-03-03T02:13:01.478Z,1002.69
2019-03-03T02:14:01.425Z,1002.69
2019-03-03T02:15:01.413Z,1002.73
2019-03-03T02:16:01.411Z,1002.73
2019-03-03T02:17:01.390Z,1002.69
2019-03-03T02:18:01.382Z,1002.63
2019-03-03T02:19:01.370Z,1002.65
2019-03-03T02:20:01.358Z,1002.67
2019-03-03T02:21:01.354Z,1002.66
2019-03-03T02:22:01.341Z,1002.60
2019-03-03T02:23:01.325Z,1002.60
2019-03-03T02:24:01.316Z,1002.63
2019-03-03T02:25:01.307Z,1002.59
2019-03-03T02:26:01.325Z,1002.63
2019-03-03T02:27:01.287Z,1002.59
2019-03-03T02:28:01.278Z,1002.61
2019-03-03T02:29:01.260Z,1002.55
2019-03-03T02:30:01.279Z,1002.56
2019-03-03T02:31:01.242Z,1002.57
2019-03-03T02:32:01.239Z,1002.57
2019-03-03T02:33:01.238Z,1002.55
2019-03-03T02:34:01.213Z,1002.53
2019-03-03T02:35:01.207Z,1002.54
2019-03-03T02:36:01.193Z,1002.52
2019-03-03T02:37:01.200Z,1002.54
2019-03-03T02:38:01.172Z,1002.49
2019-03-03T02:39:01.162Z,1002.45
2019-03-03T02:40:01.139Z,1002.46
2019-03-03T02:41:01.138Z,1002.52
2019-03-03T02:42:01.126Z,1002.49
2019-03-03T02:43:01.122Z,1002.42
2019-03-03T02:44:01.103Z,1002.38
2019-03-03T02:45:01.100Z,1002.36
2019-03-03T02:46:01.080Z,1002.42
2019-03-03T02:47:01.070Z,1002.40
2019-03-03T02:48:01.080Z,1002.35
2019-03-03T02:49:01.050Z,1002.37
2019-03-03T02:50:01.039Z,1002.34
2019-03-03T02:51:01.022Z,1002.38
2019-03-03T02:52:01.052Z,1002.35
2019-03-03T02:53:01.000Z,1002.34
2019-03-03T02:54:00.991Z,1002.35
2019-03-03T02:55:00.978Z,1002.42
2019-03-03T02:56:00.980Z,1002.43
2019-03-03T02:57:00.962Z,1002.37
2019-03-03T02:58:00.952Z,1002.36
2019-03-03T02:59:00.943Z,1002.36
2019-03-03T03:00:00.936Z,1002.39
2019-03-03T03:01:00.923Z,1002.45
2019-03-03T03:02:00.935Z,1002.42
2019-03-03T03:03:00.900Z,1002.40
2019-03-03T03:04:00.897Z,1002.41
2019-03-03T03:05:00.883Z,1002.38
2019-03-03T03:06:00.868Z,1002.31
2019-03-03T03:07:00.862Z,1002.32
2019-03-03T03:08:00.859Z,1002.28
2019-03-03T03:09:00.852Z,1002.30
2019-03-03T03:10:00.820Z,1002.28
2019-03-03T03:11:00.819Z,1002.24
2019-03-03T03:12:00.800Z,1002.23
2019-03-03T03:13:00.818Z,1002.26
2019-03-03T03:14:00.780Z,1002.24
2019-03-03T03:15:00.767Z,1002.23
2019-03-03T03:16:00.760Z,1002.21
2019-03-03T03:17:00.761Z,1002.23
2019-03-03T03:18:00.740Z,1002.15
2019-03-03T03:19:00.731Z,1002.07
2019-03-03T03:20:00.717Z,1002.11
2019-03-03T03:21:00.709Z,1002.12
2019-03-03T03:22:00.687Z,1002.05
2019-03-03T03:23:00.683Z,1002.11
2019-03-03T03:24:00.676Z,1002.03
2019-03-03T03:25:00.689Z,1001.99
2019-03-03T03:26:00.656Z,1001.98
2019-03-03T03:27:00.637Z,1001.97
2019-03-03T03:28:00.630Z,1001.97
2019-03-03T03:29:00.618Z,1001.88
2019-03-03T03:30:00.626Z,1001.87
2019-03-03T03:31:00.592Z,1001.84
2019-03-03T03:32:00.587Z,1001.88
2019-03-03T03:33:00.570Z,1001.87
2019-03-03T03:34:00.574Z,1001.83
2019-03-03T03:35:00.990Z,1001.77
2019-03-03T03:36:00.549Z,1001.77
2019-03-03T03:37:00.541Z,1001.75
2019-03-03T03:38:00.527Z,1001.78
2019-03-03T03:39:00.514Z,1001.72
2019-03-03T03:40:00.519Z,1001.73
2019-03-03T03:41:00.490Z,1001.66
2019-03-03T03:42:00.479Z,1001.66
2019-03-03T03:43:00.468Z,1001.65
2019-03-03T03:44:00.457Z,1001.66
2019-03-03T03:45:00.522Z,1001.61
2019-03-03T03:46:00.437Z,1001.55
2019-03-03T03:47:00.429Z,1001.51
2019-03-03T03:48:00.413Z,1001.51
2019-03-03T03:49:00.405Z,1001.51
2019-03-03T03:50:00.502Z,1001.49
2019-03-03T03:51:00.382Z,1001.50
2019-03-03T03:52:00.370Z,1001.53
2019-03-03T03:53:00.369Z,1001.49
2019-03-03T03:54:00.340Z,1001.48
2019-03-03T03:55:00.513Z,1001.39
2019-03-03T03:56:00.329Z,1001.36
2019-03-03T03:57:00.321Z,1001.39
2019-03-03T03:58:00.307Z,1001.42
2019-03-03T03:59:00.290Z,1001.48
2019-03-03T04:00:00.339Z,1001.55
2019-03-03T04:01:00.277Z,1001.49
2019-03-03T04:02:00.257Z,1001.53
2019-03-03T04:03:00.252Z,1001.50
2019-03-03T04:04:00.240Z,1001.44
2019-03-03T04:05:00.331Z,1001.45
2019-03-03T04:06:00.220Z,1001.46
2019-03-03T04:07:00.201Z,1001.44
2019-03-03T04:08:00.197Z,1001.40
2019-03-03T04:09:01.876Z,1001.38
2019-03-03T04:10:00.493Z,1001.36
2019-03-03T04:11:00.158Z,1001.31
2019-03-03T04:12:00.146Z,1001.33
2019-03-03T04:13:00.137Z,1001.32
2019-03-03T04:14:00.133Z,1001.26
2019-03-03T04:15:00.339Z,1001.30
2019-03-03T04:16:00.103Z,1001.32
2019-03-03T04:17:00.099Z,1001.23
2019-03-03T04:18:00.081Z,1001.20
2019-03-03T04:19:00.079Z,1001.16
2019-03-03T04:20:00.091Z,1001.13
2019-03-03T04:21:00.058Z,1001.16
2019-03-03T04:22:00.041Z,1001.13
2019-03-03T04:23:00.037Z,1001.14
2019-03-03T04:24:00.055Z,1001.12
2019-03-03T04:25:00.018Z,1001.09
2019-03-03T04:26:00.007Z,1001.03
2019-03-03T04:26:59.993Z,1001.08
2019-03-03T04:27:59.992Z,1001.06
2019-03-03T04:28:59.969Z,1001.02
2019-03-03T04:29:59.959Z,1001.01
2019-03-03T04:30:59.951Z,1000.97
2019-03-03T04:31:59.939Z,1001.00
2019-03-03T04:32:59.931Z,1001.02
2019-03-03T04:33:59.913Z,1001.04
2019-03-03T04:34:59.902Z,1001.05
2019-03-03T04:35:59.899Z,1001.05
2019-03-03T04:36:59.892Z,1001.00
2019-03-03T04:37:59.879Z,1001.02
2019-03-03T04:38:59.858Z,1001.01
2019-03-03T04:39:59.853Z,1001.01
2019-03-03T04:40:59.845Z,1001.00
2019-03-03T04:41:59.833Z,1000.99
2019-03-03T04:42:59.824Z,1001.00
2019-03-03T04:43:59.808Z,1001.00
2019-03-03T04:44:59.792Z,1001.04
2019-03-03T04:45:59.795Z,1000.98
2019-03-03T04:46:59.778Z,1001.00
2019-03-03T04:47:59.767Z,1001.00
2019-03-03T04:48:59.760Z,1000.99
2019-03-03T04:49:59.741Z,1001.00
2019-03-03T04:50:59.730Z,1001.01
2019-03-03T04:51:59.721Z,1000.99
2019-03-03T04:52:59.711Z,1001.06
2019-03-03T04:53:59.700Z,1001.02
2019-03-03T04:54:59.701Z,1000.98
2019-03-03T04:55:59.679Z,1000.96
2019-03-03T04:56:59.668Z,1000.94
2019-03-03T04:57:59.656Z,1000.92
2019-03-03T04:58:59.658Z,1000.92
2019-03-03T04:59:59.640Z,1000.87
2019-03-03T05:00:59.629Z,1000.90
2019-03-03T05:01:59.623Z,1000.83
2019-03-03T05:02:59.606Z,1000.80
2019-03-03T05:03:59.592Z,1000.88
2019-03-03T05:04:59.586Z,1000.92
2019-03-03T05:05:59.581Z,1000.96
2019-03-03T05:06:59.602Z,1000.96
2019-03-03T05:07:59.549Z,1000.93
2019-03-03T05:08:59.538Z,1000.93
2019-03-03T05:09:59.529Z,1000.92
2019-03-03T05:10:59.525Z,1000.93
2019-03-03T05:11:59.522Z,1000.92
2019-03-03T05:12:59.501Z,1000.92
2019-03-03T05:13:59.491Z,1000.94
2019-03-03T05:14:59.483Z,1000.95
2019-03-03T05:15:59.468Z,1000.91
2019-03-03T05:16:59.464Z,1000.93
2019-03-03T05:17:59.452Z,1000.89
2019-03-03T05:18:59.444Z,1000.92
2019-03-03T05:19:59.431Z,1000.90
2019-03-03T05:20:59.416Z,1000.91
2019-03-03T05:21:59.415Z,1000.86
2019-03-03T05:22:59.413Z,1000.82
2019-03-03T05:23:59.391Z,1000.78
2019-03-03T05:24:59.374Z,1000.71
2019-03-03T05:25:59.361Z,1000.66
2019-03-03T05:26:59.352Z,1000.63
2019-03-03T05:27:59.341Z,1000.67
2019-03-03T05:28:59.337Z,1000.66
2019-03-03T05:29:59.326Z,1000.73
2019-03-03T05:30:59.311Z,1000.72
2019-03-03T05:31:59.304Z,1000.73
2019-03-03T05:32:59.290Z,1000.72
2019-03-03T05:33:59.283Z,1000.75
2019-03-03T05:34:59.265Z,1000.69
2019-03-03T05:35:59.275Z,1000.69
2019-03-03T05:36:59.247Z,1000.63
2019-03-03T05:37:59.238Z,1000.64
2019-03-03T05:38:59.228Z,1000.65
2019-03-03T05:39:59.218Z,1000.60
2019-03-03T05:40:59.213Z,1000.64
2019-03-03T05:41:59.213Z,1000.64
2019-03-03T05:42:59.185Z,1000.64
2019-03-03T05:43:59.177Z,1000.62
2019-03-03T05:44:59.170Z,1000.65
2019-03-03T05:45:59.178Z,1000.59
2019-03-03T05:46:59.153Z,1000.49
2019-03-03T05:47:59.139Z,1000.51
2019-03-03T05:48:59.121Z,1000.46
2019-03-03T05:49:59.114Z,1000.53
2019-03-03T05:50:59.101Z,1000.43
2019-03-03T05:51:59.092Z,1000.40
2019-03-03T05:52:59.090Z,1000.39
2019-03-03T05:53:59.066Z,1000.41
2019-03-03T05:54:59.053Z,1000.36
2019-03-03T05:55:59.044Z,1000.37
2019-03-03T05:56:59.040Z,1000.36
2019-03-03T05:57:59.025Z,1000.44
2019-03-03T05:58:59.033Z,1000.40
2019-03-03T05:59:59.013Z,1000.41
2019-03-03T06:00:59.001Z,1000.38
2019-03-03T06:01:59.031Z,1000.44
2019-03-03T06:02:58.972Z,1000.38
2019-03-03T06:03:58.966Z,1000.37
2019-03-03T06:04:58.950Z,1000.35
2019-03-03T06:05:58.953Z,1000.38
2019-03-03T06:06:58.931Z,1000.29
2019-03-03T06:07:58.918Z,1000.30
2019-03-03T06:08:58.932Z,1000.31
2019-03-03T06:09:58.903Z,1000.27
2019-03-03T06:10:58.892Z,1000.28
2019-03-03T06:11:58.876Z,1000.26
2019-03-03T06:12:58.867Z,1000.30
2019-03-03T06:13:58.854Z,1000.21
2019-03-03T06:14:58.854Z,1000.22
2019-03-03T06:15:58.832Z,1000.20
2019-03-03T06:16:58.828Z,1000.21
2019-03-03T06:17:58.813Z,1000.20
2019-03-03T06:18:58.810Z,1000.23
2019-03-03T06:19:58.810Z,1000.27
2019-03-03T06:20:58.778Z,1000.22
2019-03-03T06:21:58.771Z,1000.21
2019-03-03T06:22:58.757Z,1000.17
2019-03-03T06:23:58.746Z,1000.19
2019-03-03T06:24:58.748Z,1000.21
2019-03-03T06:25:58.728Z,1000.24
2019-03-03T06:26:58.725Z,1000.16
2019-03-03T06:27:58.708Z,1000.18
2019-03-03T06:28:58.691Z,1000.17
2019-03-03T06:29:58.688Z,1000.24
2019-03-03T06:30:58.675Z,1000.14
2019-03-03T06:31:58.669Z,1000.15
2019-03-03T06:32:58.683Z,1000.13
2019-03-03T06:33:58.639Z,1000.13
2019-03-03T06:34:58.643Z,1000.17
2019-03-03T06:35:58.625Z,1000.19
2019-03-03T06:36:58.610Z,1000.15
2019-03-03T06:37:58.610Z,1000.11
2019-03-03T06:38:58.592Z,1000.05
2019-03-03T06:39:58.583Z,1000.06
2019-03-03T06:40:58.571Z,1000.01
2019-03-03T06:41:58.582Z,1000.02
2019-03-03T06:42:58.551Z,1000.02
2019-03-03T06:43:58.546Z,1000.04
2019-03-03T06:44:58.534Z,999.97
2019-03-03T06:45:58.517Z,999.91
2019-03-03T06:46:58.514Z,999.97
2019-03-03T06:47:58.501Z,999.99
2019-03-03T06:48:58.492Z,999.90
2019-03-03T06:49:58.474Z,999.89
2019-03-03T06:50:58.466Z,999.91
2019-03-03T06:51:58.454Z,999.97
2019-03-03T06:52:58.438Z,1000.00
2019-03-03T06:53:58.432Z,999.93
2019-03-03T06:54:58.428Z,999.99
2019-03-03T06:55:58.412Z,1000.03
2019-03-03T06:56:58.400Z,999.96
2019-03-03T06:57:58.382Z,999.95
2019-03-03T06:58:58.383Z,999.91
2019-03-03T06:59:58.369Z,999.93
2019-03-03T07:00:58.361Z,999.90
2019-03-03T07:01:58.359Z,999.90
2019-03-03T07:02:58.337Z,999.85
2019-03-03T07:03:58.322Z,999.89
2019-03-03T07:04:58.322Z,999.88
2019-03-03T07:05:58.308Z,999.83
2019-03-03T07:06:58.286Z,999.81
2019-03-03T07:07:58.308Z,999.81
2019-03-03T07:08:58.268Z,999.71
2019-03-03T07:09:58.274Z,999.76
2019-03-03T07:10:58.248Z,999.72
2019-03-03T07:11:58.236Z,999.74
2019-03-03T07:12:58.233Z,999.72
2019-03-03T07:13:58.210Z,999.74
2019-03-03T07:14:58.213Z,999.73
2019-03-03T07:15:58.190Z,999.71
2019-03-03T07:16:58.217Z,999.65
2019-03-03T07:17:58.197Z,999.78
2019-03-03T07:18:58.161Z,999.73
2019-03-03T07:19:58.153Z,999.77
2019-03-03T07:20:58.137Z,999.76
2019-03-03T07:21:58.121Z,999.81
2019-03-03T07:22:58.122Z,999.73
2019-03-03T07:23:58.104Z,999.67
2019-03-03T07:24:58.090Z,999.64
2019-03-03T07:25:58.080Z,999.63
2019-03-03T07:26:58.074Z,999.70
2019-03-03T07:27:58.064Z,999.71
2019-03-03T07:28:58.055Z,999.66
2019-03-03T07:29:58.062Z,999.69
2019-03-03T07:30:58.049Z,999.79
2019-03-03T07:31:58.023Z,999.80
2019-03-03T07:32:58.020Z,999.76
2019-03-03T07:33:58.025Z,999.74
2019-03-03T07:34:57.988Z,999.77
2019-03-03T07:35:57.979Z,999.74
2019-03-03T07:36:57.962Z,999.78
2019-03-03T07:37:57.954Z,999.67
2019-03-03T07:38:57.939Z,999.67
2019-03-03T07:39:57.971Z,999.78
2019-03-03T07:40:57.932Z,999.66
2019-03-03T07:41:57.914Z,999.63
2019-03-03T07:42:57.946Z,999.63
2019-03-03T07:43:57.899Z,999.61
2019-03-03T07:44:57.906Z,999.60
2019-03-03T07:45:57.906Z,999.59
2019-03-03T07:46:57.891Z,999.67
2019-03-03T07:47:57.864Z,999.61
2019-03-03T07:48:57.852Z,999.58
2019-03-03T07:49:57.820Z,999.54
2019-03-03T07:50:57.822Z,999.67
2019-03-03T07:51:57.820Z,999.67
2019-03-03T07:52:57.805Z,999.56
2019-03-03T07:53:57.779Z,999.60
2019-03-03T07:54:57.780Z,999.52
2019-03-03T07:55:57.762Z,999.59
2019-03-03T07:56:57.761Z,999.58
2019-03-03T07:57:57.782Z,999.59
2019-03-03T07:58:57.730Z,999.63
2019-03-03T07:59:57.784Z,999.63
2019-03-03T08:00:57.713Z,999.64
2019-03-03T08:01:57.701Z,999.59
2019-03-03T08:02:57.738Z,999.52
2019-03-03T08:03:57.678Z,999.63
2019-03-03T08:04:57.679Z,999.53
2019-03-03T08:05:57.653Z,999.54
2019-03-03T08:06:57.777Z,999.53
2019-03-03T08:07:57.640Z,999.56
2019-03-03T08:08:57.626Z,999.54
2019-03-03T08:09:58.466Z,999.59
2019-03-03T08:10:57.601Z,999.51
2019-03-03T08:11:57.589Z,999.51
2019-03-03T08:12:57.589Z,999.51
2019-03-03T08:13:57.577Z,999.45
2019-03-03T08:14:57.566Z,999.40
2019-03-03T08:15:57.565Z,999.43
2019-03-03T08:16:57.530Z,999.39
2019-03-03T08:17:57.524Z,999.39
2019-03-03T08:18:57.514Z,999.43
2019-03-03T08:19:57.512Z,999.41
2019-03-03T08:20:57.487Z,999.44
2019-03-03T08:21:57.488Z,999.38
2019-03-03T08:22:57.476Z,999.51
2019-03-03T08:23:57.472Z,999.39
2019-03-03T08:24:57.463Z,999.36
2019-03-03T08:25:57.429Z,999.36
2019-03-03T08:26:57.422Z,999.23
2019-03-03T08:27:57.412Z,999.39
2019-03-03T08:28:57.403Z,999.34
2019-03-03T08:29:57.393Z,999.25
2019-03-03T08:30:57.391Z,999.26
2019-03-03T08:31:57.373Z,999.19
2019-03-03T08:32:57.358Z,999.14
2019-03-03T08:33:57.347Z,999.27
2019-03-03T08:34:57.341Z,999.21
2019-03-03T08:35:57.327Z,999.15
2019-03-03T08:36:57.321Z,999.27
2019-03-03T08:37:57.305Z,999.29
2019-03-03T08:38:57.313Z,999.26
2019-03-03T08:39:57.283Z,999.27
2019-03-03T08:40:57.278Z,999.32
2019-03-03T08:41:57.275Z,999.29
2019-03-03T08:42:57.260Z,999.22
2019-03-03T08:43:57.241Z,999.30
2019-03-03T08:44:57.231Z,999.32
2019-03-03T08:45:57.225Z,999.34
2019-03-03T08:46:57.245Z,999.43
2019-03-03T08:47:57.206Z,999.41
2019-03-03T08:48:57.189Z,999.37
2019-03-03T08:49:57.177Z,999.35
2019-03-03T08:50:57.179Z,999.36
2019-03-03T08:51:57.160Z,999.33
2019-03-03T08:52:57.156Z,999.35
2019-03-03T08:53:57.151Z,999.40
2019-03-03T08:54:59.394Z,999.30
2019-03-03T08:55:57.113Z,999.38
2019-03-03T08:56:57.114Z,999.33
2019-03-03T08:57:57.086Z,999.27
2019-03-03T08:58:57.093Z,999.30
2019-03-03T08:59:57.086Z,999.34
2019-03-03T09:00:57.062Z,999.33
2019-03-03T09:01:57.049Z,999.24
2019-03-03T09:02:57.029Z,999.23
2019-03-03T09:03:57.026Z,999.19
2019-03-03T09:04:57.030Z,999.26
2019-03-03T09:05:57.003Z,999.29
2019-03-03T09:06:56.995Z,999.27
2019-03-03T09:07:56.982Z,999.28
2019-03-03T09:08:56.998Z,999.26
2019-03-03T09:09:56.963Z,999.24
2019-03-03T09:10:56.954Z,999.25
2019-03-03T09:11:56.944Z,999.19
2019-03-03T09:12:56.947Z,999.28
2019-03-03T09:13:56.914Z,999.31
2019-03-03T09:14:56.905Z,999.33
2019-03-03T09:15:56.904Z,999.31
2019-03-03T09:16:56.895Z,999.33
2019-03-03T09:17:56.874Z,999.37
2019-03-03T09:18:56.873Z,999.12
2019-03-03T09:19:56.850Z,999.26
2019-03-03T09:20:56.849Z,999.28
2019-03-03T09:21:56.829Z,999.36
2019-03-03T09:22:56.835Z,999.38
2019-03-03T09:23:56.809Z,999.36
2019-03-03T09:24:56.801Z,999.34
2019-03-03T09:25:56.802Z,999.39
2019-03-03T09:26:56.776Z,999.47
2019-03-03T09:27:57.311Z,999.34
2019-03-03T09:28:56.779Z,999.34
2019-03-03T09:29:56.759Z,999.34
2019-03-03T09:30:56.729Z,999.35
2019-03-03T09:31:56.741Z,999.23
2019-03-03T09:32:56.715Z,999.36
2019-03-03T09:33:56.708Z,999.27
2019-03-03T09:34:56.691Z,999.32
2019-03-03T09:35:56.671Z,999.34
2019-03-03T09:36:56.662Z,999.26
2019-03-03T09:37:56.676Z,999.21
2019-03-03T09:38:56.656Z,999.28
2019-03-03T09:39:56.639Z,999.29
2019-03-03T09:40:56.623Z,999.27
2019-03-03T09:41:56.641Z,999.30
2019-03-03T09:42:56.610Z,999.27
2019-03-03T09:43:56.609Z,999.30
2019-03-03T09:44:56.619Z,999.24
2019-03-03T09:45:56.568Z,999.23
2019-03-03T09:46:56.555Z,999.23
2019-03-03T09:47:56.546Z,999.28
2019-03-03T09:48:56.540Z,999.29
2019-03-03T09:49:56.533Z,999.34
2019-03-03T09:50:56.543Z,999.38
2019-03-03T09:51:56.502Z,999.40
2019-03-03T09:52:56.490Z,999.37
2019-03-03T09:53:56.483Z,999.47
2019-03-03T09:54:56.466Z,999.36
2019-03-03T09:55:56.464Z,999.50
2019-03-03T09:56:56.444Z,999.38
2019-03-03T09:57:56.433Z,999.38
2019-03-03T09:58:56.432Z,999.43
2019-03-03T09:59:56.415Z,999.41
2019-03-03T10:00:56.412Z,999.47
2019-03-03T10:01:56.413Z,999.46
2019-03-03T10:02:56.382Z,999.49
2019-03-03T10:03:56.383Z,999.45
2019-03-03T10:04:56.359Z,999.38
2019-03-03T10:05:56.349Z,999.38
2019-03-03T10:06:56.349Z,999.35
2019-03-03T10:07:56.329Z,999.38
2019-03-03T10:08:56.322Z,999.39
2019-03-03T10:09:56.313Z,999.40
2019-03-03T10:10:56.306Z,999.37
2019-03-03T10:11:56.287Z,999.32
2019-03-03T10:12:56.285Z,999.32
2019-03-03T10:13:56.290Z,999.43
2019-03-03T10:14:56.261Z,999.38
2019-03-03T10:15:56.240Z,999.33
2019-03-03T10:16:56.233Z,999.32
2019-03-03T10:17:56.231Z,999.38
2019-03-03T10:18:56.235Z,999.38
2019-03-03T10:19:56.197Z,999.46
2019-03-03T10:20:56.185Z,999.37
2019-03-03T10:21:56.181Z,999.26
2019-03-03T10:22:56.168Z,999.50
2019-03-03T10:23:56.195Z,999.44
2019-03-03T10:24:56.156Z,999.44
2019-03-03T10:25:56.139Z,999.47
2019-03-03T10:26:56.129Z,999.43
2019-03-03T10:27:56.117Z,999.46
2019-03-03T10:28:56.129Z,999.45
2019-03-03T10:29:56.109Z,999.47
2019-03-03T10:30:56.084Z,999.43
2019-03-03T10:31:56.074Z,999.46
2019-03-03T10:32:56.062Z,999.38
2019-03-03T10:33:56.066Z,999.41
2019-03-03T10:34:56.041Z,999.46
2019-03-03T10:35:56.044Z,999.50
2019-03-03T10:36:56.017Z,999.47
2019-03-03T10:37:56.025Z,999.50
2019-03-03T10:38:55.997Z,999.48
2019-03-03T10:39:56.010Z,999.45
2019-03-03T10:40:55.982Z,999.52
2019-03-03T10:41:55.963Z,999.54
2019-03-03T10:42:55.963Z,999.43
2019-03-03T10:43:55.955Z,999.44
2019-03-03T10:44:55.938Z,999.46
2019-03-03T10:45:55.955Z,999.49
2019-03-03T10:46:55.920Z,999.44
2019-03-03T10:47:55.921Z,999.46
2019-03-03T10:48:55.893Z,999.44
2019-03-03T10:49:55.950Z,999.42
2019-03-03T10:50:55.880Z,999.47
2019-03-03T10:51:55.860Z,999.52
2019-03-03T10:52:55.855Z,999.47
2019-03-03T10:53:55.839Z,999.49
2019-03-03T10:54:55.828Z,999.44
2019-03-03T10:55:55.822Z,999.43
2019-03-03T10:56:55.864Z,999.31
2019-03-03T10:57:55.826Z,999.33
2019-03-03T10:58:55.784Z,999.36
2019-03-03T10:59:55.772Z,999.34
2019-03-03T11:00:55.767Z,999.27
2019-03-03T11:01:55.748Z,999.30
2019-03-03T11:02:55.855Z,999.33
2019-03-03T11:03:55.741Z,999.28
2019-03-03T11:04:55.741Z,999.25
2019-03-03T11:05:55.713Z,999.33
2019-03-03T11:06:55.710Z,999.37
2019-03-03T11:07:55.705Z,999.37
2019-03-03T11:08:55.696Z,999.31
2019-03-03T11:09:55.690Z,999.33
2019-03-03T11:10:57.777Z,999.38
2019-03-03T11:11:55.653Z,999.37
2019-03-03T11:12:55.723Z,999.33
2019-03-03T11:13:55.661Z,999.43
2019-03-03T11:14:55.633Z,999.42
2019-03-03T11:15:55.613Z,999.40
2019-03-03T11:16:55.593Z,999.33
2019-03-03T11:17:55.583Z,999.31
2019-03-03T11:18:56.249Z,999.36
2019-03-03T11:19:55.557Z,999.28
2019-03-03T11:20:55.549Z,999.38
2019-03-03T11:21:55.535Z,999.31
2019-03-03T11:22:55.540Z,999.37
2019-03-03T11:23:55.519Z,999.25
2019-03-03T11:24:55.514Z,999.30
2019-03-03T11:25:55.517Z,999.28
2019-03-03T11:26:55.489Z,999.28
2019-03-03T11:27:55.477Z,999.31
2019-03-03T11:28:55.461Z,999.30
2019-03-03T11:29:55.457Z,999.26
2019-03-03T11:30:55.437Z,999.34
2019-03-03T11:31:55.439Z,999.31
2019-03-03T11:32:55.427Z,999.31
2019-03-03T11:33:55.413Z,999.31
2019-03-03T11:34:55.411Z,999.34
2019-03-03T11:35:55.411Z,999.34
2019-03-03T11:36:55.379Z,999.17
2019-03-03T11:37:55.365Z,999.27
2019-03-03T11:38:55.367Z,999.23
2019-03-03T11:39:55.356Z,999.22
2019-03-03T11:40:55.334Z,999.23
2019-03-03T11:41:55.328Z,999.21
2019-03-03T11:42:55.363Z,999.13
2019-03-03T11:43:55.308Z,999.13
2019-03-03T11:44:55.293Z,999.21
2019-03-03T11:45:55.284Z,999.16
2019-03-03T11:46:55.271Z,999.22
2019-03-03T11:48:03.863Z,999.20
2019-03-03T11:48:56.263Z,999.29
2019-03-03T11:49:55.245Z,999.23
2019-03-03T11:50:55.234Z,999.24
2019-03-03T11:51:55.228Z,999.23
2019-03-03T11:52:55.203Z,999.20
2019-03-03T11:53:55.195Z,999.23
2019-03-03T11:54:55.195Z,999.17
2019-03-03T11:55:55.208Z,999.21
2019-03-03T11:56:55.165Z,999.19
2019-03-03T11:57:55.288Z,999.26
2019-03-03T11:58:55.141Z,999.19
2019-03-03T11:59:55.151Z,999.23
2019-03-03T12:00:55.127Z,999.20
2019-03-03T12:01:55.156Z,999.20
2019-03-03T12:02:55.102Z,999.20
2019-03-03T12:03:55.099Z,999.23
2019-03-03T12:04:55.107Z,999.21
2019-03-03T12:05:55.132Z,999.25
2019-03-03T12:06:55.073Z,999.20
2019-03-03T12:07:55.046Z,999.29
2019-03-03T12:08:55.040Z,999.17
2019-03-03T12:09:55.092Z,999.17
2019-03-03T12:10:56.903Z,999.19
2019-03-03T12:11:55.037Z,999.22
2019-03-03T12:12:54.993Z,999.22
2019-03-03T12:13:55.025Z,999.19
2019-03-03T12:14:54.978Z,999.24